sensor_id;sensor_type;location;lat;lon;timestamp;temperature;humidity
20284;DHT22;10301;50.832;4.080;2023-08-21T00:01:20;21.70;1.00
20284;DHT22;10301;50.832;4.080;2023-08-21T00:03:45;21.40;1.00
20284;DHT22;10301;50.832;4.080;2023-08-21T00:06:11;21.50;1.00
20284;DHT22;10301;50.832;4.080;2023-08-21T00:08:37;21.50;1.00
20284;DHT22;10301;50.832;4.080;2023-08-21T00:11:02;21.50;1.00
20284;DHT22;10301;50.832;4.080;2023-08-21T00:13:28;21.40;1.00
20284;DHT22;10301;50.832;4.080;2023-08-21T00:15:54;21.30;1.00
20284;DHT22;10301;50.832;4.080;2023-08-21T00:18:21;21.20;1.00
20284;DHT22;10301;50.832;4.080;2023-08-21T00:20:46;21.10;1.00
20284;DHT22;10301;50.832;4.080;2023-08-21T00:23:12;21.10;1.00
20284;DHT22;10301;50.832;4.080;2023-08-21T00:25:38;21.00;1.00
20284;DHT22;10301;50.832;4.080;2023-08-21T00:28:04;21.10;1.00
20284;DHT22;10301;50.832;4.080;2023-08-21T00:30:29;20.90;1.00
20284;DHT22;10301;50.832;4.080;2023-08-21T00:32:55;21.00;1.00
20284;DHT22;10301;50.832;4.080;2023-08-21T00:35:20;21.00;1.00
20284;DHT22;10301;50.832;4.080;2023-08-21T00:37:46;21.00;1.00
20284;DHT22;10301;50.832;4.080;2023-08-21T00:40:12;21.00;1.00
20284;DHT22;10301;50.832;4.080;2023-08-21T00:42:38;21.00;1.00
20284;DHT22;10301;50.832;4.080;2023-08-21T00:45:04;20.70;1.00
20284;DHT22;10301;50.832;4.080;2023-08-21T00:47:30;20.60;1.00
20284;DHT22;10301;50.832;4.080;2023-08-21T00:49:56;20.80;1.00
20284;DHT22;10301;50.832;4.080;2023-08-21T00:52:22;21.00;1.00
20284;DHT22;10301;50.832;4.080;2023-08-21T00:54:48;20.80;1.00
20284;DHT22;10301;50.832;4.080;2023-08-21T00:57:14;20.50;1.00
20284;DHT22;10301;50.832;4.080;2023-08-21T00:59:40;20.30;1.00
20284;DHT22;10301;50.832;4.080;2023-08-21T01:02:06;20.40;1.00
20284;DHT22;10301;50.832;4.080;2023-08-21T01:04:31;20.70;1.00
20284;DHT22;10301;50.832;4.080;2023-08-21T01:06:57;20.70;1.00
20284;DHT22;10301;50.832;4.080;2023-08-21T01:09:36;20.50;1.00
20284;DHT22;10301;50.832;4.080;2023-08-21T01:17:23;20.00;1.00
20284;DHT22;10301;50.832;4.080;2023-08-21T01:19:50;19.90;1.00
20284;DHT22;10301;50.832;4.080;2023-08-21T01:22:17;20.10;1.00
20284;DHT22;10301;50.832;4.080;2023-08-21T01:24:43;20.50;1.00
20284;DHT22;10301;50.832;4.080;2023-08-21T01:27:12;20.30;1.00
20284;DHT22;10301;50.832;4.080;2023-08-21T01:29:39;20.50;1.00
20284;DHT22;10301;50.832;4.080;2023-08-21T01:32:09;20.40;1.00
20284;DHT22;10301;50.832;4.080;2023-08-21T01:34:38;20.10;1.00
20284;DHT22;10301;50.832;4.080;2023-08-21T01:37:04;20.20;1.00
20284;DHT22;10301;50.832;4.080;2023-08-21T01:39:31;20.40;1.00
20284;DHT22;10301;50.832;4.080;2023-08-21T01:41:57;20.20;1.00
20284;DHT22;10301;50.832;4.080;2023-08-21T01:44:23;19.90;1.00
20284;DHT22;10301;50.832;4.080;2023-08-21T01:46:49;19.70;1.00
20284;DHT22;10301;50.832;4.080;2023-08-21T01:49:15;19.60;1.00
20284;DHT22;10301;50.832;4.080;2023-08-21T01:51:41;19.50;1.00
20284;DHT22;10301;50.832;4.080;2023-08-21T01:54:06;19.60;1.00
20284;DHT22;10301;50.832;4.080;2023-08-21T01:56:32;19.50;1.00
20284;DHT22;10301;50.832;4.080;2023-08-21T01:58:57;19.30;1.00
20284;DHT22;10301;50.832;4.080;2023-08-21T02:01:23;19.10;10.90
20284;DHT22;10301;50.832;4.080;2023-08-21T02:03:49;19.00;18.20
20284;DHT22;10301;50.832;4.080;2023-08-21T02:06:14;19.10;20.20
20284;DHT22;10301;50.832;4.080;2023-08-21T02:08:40;19.00;21.50
20284;DHT22;10301;50.832;4.080;2023-08-21T02:11:06;19.00;26.50
20284;DHT22;10301;50.832;4.080;2023-08-21T02:13:31;18.90;23.00
20284;DHT22;10301;50.832;4.080;2023-08-21T02:15:58;18.90;29.00
20284;DHT22;10301;50.832;4.080;2023-08-21T02:18:24;19.00;28.70
20284;DHT22;10301;50.832;4.080;2023-08-21T02:20:50;19.40;4.70
20284;DHT22;10301;50.832;4.080;2023-08-21T02:23:16;19.60;1.00
20284;DHT22;10301;50.832;4.080;2023-08-21T02:25:42;19.60;1.00
20284;DHT22;10301;50.832;4.080;2023-08-21T02:28:08;19.60;1.00
20284;DHT22;10301;50.832;4.080;2023-08-21T02:30:33;19.70;1.00
20284;DHT22;10301;50.832;4.080;2023-08-21T02:32:59;19.80;1.00
20284;DHT22;10301;50.832;4.080;2023-08-21T02:35:25;19.80;1.00
20284;DHT22;10301;50.832;4.080;2023-08-21T02:37:50;19.80;1.00
20284;DHT22;10301;50.832;4.080;2023-08-21T02:40:16;19.80;1.00
20284;DHT22;10301;50.832;4.080;2023-08-21T02:42:42;19.70;1.00
20284;DHT22;10301;50.832;4.080;2023-08-21T02:45:08;19.70;1.00
20284;DHT22;10301;50.832;4.080;2023-08-21T02:47:37;19.60;1.00
20284;DHT22;10301;50.832;4.080;2023-08-21T02:50:07;19.70;1.00
20284;DHT22;10301;50.832;4.080;2023-08-21T02:52:34;19.70;1.00
20284;DHT22;10301;50.832;4.080;2023-08-21T02:55:00;19.70;1.00
20284;DHT22;10301;50.832;4.080;2023-08-21T02:57:27;19.80;1.00
20284;DHT22;10301;50.832;4.080;2023-08-21T02:59:53;19.70;1.00
20284;DHT22;10301;50.832;4.080;2023-08-21T03:02:19;19.70;1.00
20284;DHT22;10301;50.832;4.080;2023-08-21T03:04:45;19.60;1.00
20284;DHT22;10301;50.832;4.080;2023-08-21T03:07:11;19.30;1.00
20284;DHT22;10301;50.832;4.080;2023-08-21T03:09:37;19.50;1.00
20284;DHT22;10301;50.832;4.080;2023-08-21T03:12:03;19.50;1.00
20284;DHT22;10301;50.832;4.080;2023-08-21T03:14:29;19.60;1.00
20284;DHT22;10301;50.832;4.080;2023-08-21T03:16:55;19.60;1.00
20284;DHT22;10301;50.832;4.080;2023-08-21T03:19:20;19.40;1.00
20284;DHT22;10301;50.832;4.080;2023-08-21T03:21:46;19.40;1.00
20284;DHT22;10301;50.832;4.080;2023-08-21T03:24:12;19.40;1.00
20284;DHT22;10301;50.832;4.080;2023-08-21T03:26:37;19.50;1.00
20284;DHT22;10301;50.832;4.080;2023-08-21T03:29:03;19.40;1.00
20284;DHT22;10301;50.832;4.080;2023-08-21T03:31:29;19.50;1.00
20284;DHT22;10301;50.832;4.080;2023-08-21T03:33:55;19.20;1.00
20284;DHT22;10301;50.832;4.080;2023-08-21T03:36:21;19.20;1.00
20284;DHT22;10301;50.832;4.080;2023-08-21T03:38:59;19.10;1.00
20284;DHT22;10301;50.832;4.080;2023-08-21T03:41:24;19.20;1.00
20284;DHT22;10301;50.832;4.080;2023-08-21T03:43:50;19.20;1.00
20284;DHT22;10301;50.832;4.080;2023-08-21T03:46:16;19.20;1.00
20284;DHT22;10301;50.832;4.080;2023-08-21T03:48:41;19.10;1.00
20284;DHT22;10301;50.832;4.080;2023-08-21T03:51:07;19.10;1.00
20284;DHT22;10301;50.832;4.080;2023-08-21T03:53:32;19.00;2.70
20284;DHT22;10301;50.832;4.080;2023-08-21T03:55:58;18.90;10.20
20284;DHT22;10301;50.832;4.080;2023-08-21T03:58:24;18.90;4.90
20284;DHT22;10301;50.832;4.080;2023-08-21T04:00:52;18.90;5.00
20284;DHT22;10301;50.832;4.080;2023-08-21T04:03:18;18.80;16.00
20284;DHT22;10301;50.832;4.080;2023-08-21T04:05:43;18.80;9.80
20284;DHT22;10301;50.832;4.080;2023-08-21T04:08:09;18.80;14.00
20284;DHT22;10301;50.832;4.080;2023-08-21T04:10:35;18.70;16.20
20284;DHT22;10301;50.832;4.080;2023-08-21T04:13:00;18.80;14.80
20284;DHT22;10301;50.832;4.080;2023-08-21T04:15:26;18.70;14.70
20284;DHT22;10301;50.832;4.080;2023-08-21T04:17:52;18.70;15.70
20284;DHT22;10301;50.832;4.080;2023-08-21T04:20:20;18.70;16.90
20284;DHT22;10301;50.832;4.080;2023-08-21T04:22:47;18.60;20.20
20284;DHT22;10301;50.832;4.080;2023-08-21T04:25:13;18.70;20.40
20284;DHT22;10301;50.832;4.080;2023-08-21T04:27:38;18.60;19.90
20284;DHT22;10301;50.832;4.080;2023-08-21T04:30:04;18.60;17.70
20284;DHT22;10301;50.832;4.080;2023-08-21T04:32:30;18.70;16.60
20284;DHT22;10301;50.832;4.080;2023-08-21T04:34:56;18.60;14.50
20284;DHT22;10301;50.832;4.080;2023-08-21T04:37:23;18.60;13.70
20284;DHT22;10301;50.832;4.080;2023-08-21T04:39:52;18.60;13.20
20284;DHT22;10301;50.832;4.080;2023-08-21T04:42:18;18.60;14.00
20284;DHT22;10301;50.832;4.080;2023-08-21T04:44:44;18.50;15.10
20284;DHT22;10301;50.832;4.080;2023-08-21T04:47:26;18.50;18.50
20284;DHT22;10301;50.832;4.080;2023-08-21T04:49:53;18.50;17.10
20284;DHT22;10301;50.832;4.080;2023-08-21T04:52:22;18.50;15.90
20284;DHT22;10301;50.832;4.080;2023-08-21T04:54:49;18.60;14.00
20284;DHT22;10301;50.832;4.080;2023-08-21T04:57:16;18.60;9.80
20284;DHT22;10301;50.832;4.080;2023-08-21T04:59:42;18.50;11.60
20284;DHT22;10301;50.832;4.080;2023-08-21T05:02:08;18.60;2.60
20284;DHT22;10301;50.832;4.080;2023-08-21T05:04:36;18.50;3.70
20284;DHT22;10301;50.832;4.080;2023-08-21T05:07:02;18.50;4.90
20284;DHT22;10301;50.832;4.080;2023-08-21T05:09:28;18.50;7.50
20284;DHT22;10301;50.832;4.080;2023-08-21T05:11:54;18.50;6.90
20284;DHT22;10301;50.832;4.080;2023-08-21T05:14:20;18.60;5.70
20284;DHT22;10301;50.832;4.080;2023-08-21T05:16:46;18.80;1.00
20284;DHT22;10301;50.832;4.080;2023-08-21T05:19:12;18.70;1.00
20284;DHT22;10301;50.832;4.080;2023-08-21T05:21:38;18.80;1.00
20284;DHT22;10301;50.832;4.080;2023-08-21T05:24:03;18.90;1.00
20284;DHT22;10301;50.832;4.080;2023-08-21T05:26:29;18.80;1.00
20284;DHT22;10301;50.832;4.080;2023-08-21T05:28:54;18.90;1.00
20284;DHT22;10301;50.832;4.080;2023-08-21T05:31:20;18.90;1.00
20284;DHT22;10301;50.832;4.080;2023-08-21T05:33:46;19.00;1.00
20284;DHT22;10301;50.832;4.080;2023-08-21T05:36:11;19.00;1.00
20284;DHT22;10301;50.832;4.080;2023-08-21T05:38:37;19.10;1.00
20284;DHT22;10301;50.832;4.080;2023-08-21T05:41:03;19.30;1.00
20284;DHT22;10301;50.832;4.080;2023-08-21T05:43:28;19.30;1.00
20284;DHT22;10301;50.832;4.080;2023-08-21T05:45:54;19.50;1.00
20284;DHT22;10301;50.832;4.080;2023-08-21T05:48:20;19.50;1.00
20284;DHT22;10301;50.832;4.080;2023-08-21T05:50:53;19.50;1.00
20284;DHT22;10301;50.832;4.080;2023-08-21T05:53:19;19.60;1.00
20284;DHT22;10301;50.832;4.080;2023-08-21T05:55:45;19.70;1.00
20284;DHT22;10301;50.832;4.080;2023-08-21T05:58:11;19.70;1.00
20284;DHT22;10301;50.832;4.080;2023-08-21T06:00:38;19.60;1.00
20284;DHT22;10301;50.832;4.080;2023-08-21T06:03:04;19.60;1.00
20284;DHT22;10301;50.832;4.080;2023-08-21T06:05:30;19.70;1.00
20284;DHT22;10301;50.832;4.080;2023-08-21T06:07:56;19.70;1.00
20284;DHT22;10301;50.832;4.080;2023-08-21T06:10:21;19.70;1.00
20284;DHT22;10301;50.832;4.080;2023-08-21T06:12:47;19.70;1.00
20284;DHT22;10301;50.832;4.080;2023-08-21T06:15:13;19.70;1.00
20284;DHT22;10301;50.832;4.080;2023-08-21T06:17:39;19.80;1.00
20284;DHT22;10301;50.832;4.080;2023-08-21T06:20:06;19.70;1.00
20284;DHT22;10301;50.832;4.080;2023-08-21T06:22:34;19.70;1.00
20284;DHT22;10301;50.832;4.080;2023-08-21T06:25:00;19.80;1.00
20284;DHT22;10301;50.832;4.080;2023-08-21T06:27:25;19.90;1.00
20284;DHT22;10301;50.832;4.080;2023-08-21T06:29:51;20.00;1.00
20284;DHT22;10301;50.832;4.080;2023-08-21T06:32:16;20.10;1.00
20284;DHT22;10301;50.832;4.080;2023-08-21T06:34:42;20.20;1.00
20284;DHT22;10301;50.832;4.080;2023-08-21T06:37:08;20.20;1.00
20284;DHT22;10301;50.832;4.080;2023-08-21T06:39:34;20.20;1.00
20284;DHT22;10301;50.832;4.080;2023-08-21T06:42:00;20.30;1.00
20284;DHT22;10301;50.832;4.080;2023-08-21T06:44:26;20.30;1.00
20284;DHT22;10301;50.832;4.080;2023-08-21T06:46:52;20.40;1.00
20284;DHT22;10301;50.832;4.080;2023-08-21T06:49:18;20.50;1.00
20284;DHT22;10301;50.832;4.080;2023-08-21T06:51:44;20.60;1.00
20284;DHT22;10301;50.832;4.080;2023-08-21T06:54:09;20.60;1.00
20284;DHT22;10301;50.832;4.080;2023-08-21T06:56:35;20.60;1.00
20284;DHT22;10301;50.832;4.080;2023-08-21T06:59:01;20.70;1.00
20284;DHT22;10301;50.832;4.080;2023-08-21T07:01:27;20.90;1.00
20284;DHT22;10301;50.832;4.080;2023-08-21T07:03:53;21.00;1.00
20284;DHT22;10301;50.832;4.080;2023-08-21T07:06:19;21.10;1.00
20284;DHT22;10301;50.832;4.080;2023-08-21T07:08:45;21.10;1.00
20284;DHT22;10301;50.832;4.080;2023-08-21T07:11:10;21.10;1.00
20284;DHT22;10301;50.832;4.080;2023-08-21T07:13:38;21.20;1.00
20284;DHT22;10301;50.832;4.080;2023-08-21T07:16:04;21.10;1.00
20284;DHT22;10301;50.832;4.080;2023-08-21T07:18:34;21.10;1.00
20284;DHT22;10301;50.832;4.080;2023-08-21T07:21:01;21.30;1.00
20284;DHT22;10301;50.832;4.080;2023-08-21T07:23:28;21.20;1.00
20284;DHT22;10301;50.832;4.080;2023-08-21T07:25:54;21.30;1.00
20284;DHT22;10301;50.832;4.080;2023-08-21T07:28:20;21.40;1.00
20284;DHT22;10301;50.832;4.080;2023-08-21T07:30:46;21.60;1.00
20284;DHT22;10301;50.832;4.080;2023-08-21T07:33:11;21.70;1.00
20284;DHT22;10301;50.832;4.080;2023-08-21T07:35:37;21.70;1.00
20284;DHT22;10301;50.832;4.080;2023-08-21T07:38:03;21.60;1.00
20284;DHT22;10301;50.832;4.080;2023-08-21T07:40:28;21.70;1.00
20284;DHT22;10301;50.832;4.080;2023-08-21T07:42:55;21.70;1.00
20284;DHT22;10301;50.832;4.080;2023-08-21T07:45:21;21.80;1.00
20284;DHT22;10301;50.832;4.080;2023-08-21T07:47:46;21.80;1.00
20284;DHT22;10301;50.832;4.080;2023-08-21T07:50:12;21.80;1.00
20284;DHT22;10301;50.832;4.080;2023-08-21T07:52:39;21.90;1.00
20284;DHT22;10301;50.832;4.080;2023-08-21T07:55:05;21.90;1.00
20284;DHT22;10301;50.832;4.080;2023-08-21T07:57:31;22.00;1.00
20284;DHT22;10301;50.832;4.080;2023-08-21T07:59:57;22.10;1.00
20284;DHT22;10301;50.832;4.080;2023-08-21T08:02:23;22.20;1.00
20284;DHT22;10301;50.832;4.080;2023-08-21T08:04:49;22.30;1.00
20284;DHT22;10301;50.832;4.080;2023-08-21T08:07:15;22.20;1.00
20284;DHT22;10301;50.832;4.080;2023-08-21T08:09:40;22.30;1.00
20284;DHT22;10301;50.832;4.080;2023-08-21T08:12:06;22.30;1.00
20284;DHT22;10301;50.832;4.080;2023-08-21T08:14:32;22.20;1.00
20284;DHT22;10301;50.832;4.080;2023-08-21T08:16:58;22.30;1.00
20284;DHT22;10301;50.832;4.080;2023-08-21T08:19:24;22.40;1.00
20284;DHT22;10301;50.832;4.080;2023-08-21T08:21:49;22.60;1.00
20284;DHT22;10301;50.832;4.080;2023-08-21T08:24:15;22.70;1.00
20284;DHT22;10301;50.832;4.080;2023-08-21T08:26:41;22.80;1.00
20284;DHT22;10301;50.832;4.080;2023-08-21T08:29:08;22.80;1.00
20284;DHT22;10301;50.832;4.080;2023-08-21T08:31:34;22.70;1.00
20284;DHT22;10301;50.832;4.080;2023-08-21T08:34:00;22.70;1.00
20284;DHT22;10301;50.832;4.080;2023-08-21T08:36:26;22.70;1.00
20284;DHT22;10301;50.832;4.080;2023-08-21T08:38:52;22.80;1.00
20284;DHT22;10301;50.832;4.080;2023-08-21T08:41:44;22.90;1.00
20284;DHT22;10301;50.832;4.080;2023-08-21T08:44:12;23.10;1.00
20284;DHT22;10301;50.832;4.080;2023-08-21T08:46:38;23.00;1.00
20284;DHT22;10301;50.832;4.080;2023-08-21T08:49:03;22.90;1.00
20284;DHT22;10301;50.832;4.080;2023-08-21T08:51:31;23.10;1.00
20284;DHT22;10301;50.832;4.080;2023-08-21T08:53:59;23.20;1.00
20284;DHT22;10301;50.832;4.080;2023-08-21T08:56:25;23.10;1.00
20284;DHT22;10301;50.832;4.080;2023-08-21T08:58:51;23.20;1.00
20284;DHT22;10301;50.832;4.080;2023-08-21T09:01:17;23.30;1.00
20284;DHT22;10301;50.832;4.080;2023-08-21T09:03:42;23.10;1.00
20284;DHT22;10301;50.832;4.080;2023-08-21T09:06:08;23.20;1.00
20284;DHT22;10301;50.832;4.080;2023-08-21T09:08:34;23.20;1.00
20284;DHT22;10301;50.832;4.080;2023-08-21T09:11:03;23.30;1.00
20284;DHT22;10301;50.832;4.080;2023-08-21T09:13:31;23.40;1.00
20284;DHT22;10301;50.832;4.080;2023-08-21T09:15:58;23.60;99.90
20284;DHT22;10301;50.832;4.080;2023-08-21T09:18:24;23.70;99.90
20284;DHT22;10301;50.832;4.080;2023-08-21T09:20:50;23.50;99.90
20284;DHT22;10301;50.832;4.080;2023-08-21T09:23:17;23.60;99.90
20284;DHT22;10301;50.832;4.080;2023-08-21T09:25:47;23.60;99.90
20284;DHT22;10301;50.832;4.080;2023-08-21T09:28:13;23.90;1.00
20284;DHT22;10301;50.832;4.080;2023-08-21T09:30:50;23.90;1.00
20284;DHT22;10301;50.832;4.080;2023-08-21T09:33:17;23.90;78.20
20284;DHT22;10301;50.832;4.080;2023-08-21T09:35:44;24.00;1.00
20284;DHT22;10301;50.832;4.080;2023-08-21T09:38:10;24.00;99.90
20284;DHT22;10301;50.832;4.080;2023-08-21T09:40:43;24.00;1.00
20284;DHT22;10301;50.832;4.080;2023-08-21T09:43:10;24.10;99.90
20284;DHT22;10301;50.832;4.080;2023-08-21T09:45:39;24.10;99.90
20284;DHT22;10301;50.832;4.080;2023-08-21T09:48:05;24.30;1.00
20284;DHT22;10301;50.832;4.080;2023-08-21T09:50:31;24.40;1.00
20284;DHT22;10301;50.832;4.080;2023-08-21T09:52:58;24.40;1.00
20284;DHT22;10301;50.832;4.080;2023-08-21T09:55:24;24.20;1.00
20284;DHT22;10301;50.832;4.080;2023-08-21T09:57:58;24.50;99.90
20284;DHT22;10301;50.832;4.080;2023-08-21T10:00:34;24.70;99.90
20284;DHT22;10301;50.832;4.080;2023-08-21T10:03:07;24.70;99.90
20284;DHT22;10301;50.832;4.080;2023-08-21T10:05:34;24.70;99.90
20284;DHT22;10301;50.832;4.080;2023-08-21T10:08:05;24.80;1.00
20284;DHT22;10301;50.832;4.080;2023-08-21T10:10:33;24.70;1.00
20284;DHT22;10301;50.832;4.080;2023-08-21T10:12:59;24.90;1.00
20284;DHT22;10301;50.832;4.080;2023-08-21T10:15:27;24.90;99.90
20284;DHT22;10301;50.832;4.080;2023-08-21T10:17:53;24.90;99.90
20284;DHT22;10301;50.832;4.080;2023-08-21T10:20:24;24.90;1.00
20284;DHT22;10301;50.832;4.080;2023-08-21T10:22:54;25.00;1.00
20284;DHT22;10301;50.832;4.080;2023-08-21T10:25:24;25.10;1.00
20284;DHT22;10301;50.832;4.080;2023-08-21T10:27:54;25.10;6.80
20284;DHT22;10301;50.832;4.080;2023-08-21T10:30:22;25.20;1.00
20284;DHT22;10301;50.832;4.080;2023-08-21T10:32:50;25.10;1.00
20284;DHT22;10301;50.832;4.080;2023-08-21T10:35:22;25.00;99.90
20284;DHT22;10301;50.832;4.080;2023-08-21T10:38:17;24.90;1.00
20284;DHT22;10301;50.832;4.080;2023-08-21T10:41:05;25.10;1.00
20284;DHT22;10301;50.832;4.080;2023-08-21T10:43:44;25.30;1.00
20284;DHT22;10301;50.832;4.080;2023-08-21T10:46:11;25.30;99.90
20284;DHT22;10301;50.832;4.080;2023-08-21T10:48:38;25.00;99.90
20284;DHT22;10301;50.832;4.080;2023-08-21T10:51:06;24.80;1.00
20284;DHT22;10301;50.832;4.080;2023-08-21T10:53:33;24.70;1.00
20284;DHT22;10301;50.832;4.080;2023-08-21T10:56:03;25.00;99.90
20284;DHT22;10301;50.832;4.080;2023-08-21T10:58:35;25.00;99.90
20284;DHT22;10301;50.832;4.080;2023-08-21T11:01:03;25.10;50.80
20284;DHT22;10301;50.832;4.080;2023-08-21T11:03:29;25.20;99.90
20284;DHT22;10301;50.832;4.080;2023-08-21T11:06:09;25.40;1.00
20284;DHT22;10301;50.832;4.080;2023-08-21T11:08:35;25.20;99.90
20284;DHT22;10301;50.832;4.080;2023-08-21T11:11:03;25.10;1.00
20284;DHT22;10301;50.832;4.080;2023-08-21T11:13:29;25.30;1.00
20284;DHT22;10301;50.832;4.080;2023-08-21T11:16:02;25.40;1.00
20284;DHT22;10301;50.832;4.080;2023-08-21T11:18:36;25.50;1.00
20284;DHT22;10301;50.832;4.080;2023-08-21T11:21:08;25.10;99.90
20284;DHT22;10301;50.832;4.080;2023-08-21T11:23:35;25.30;99.90
20284;DHT22;10301;50.832;4.080;2023-08-21T11:26:02;25.60;1.00
20284;DHT22;10301;50.832;4.080;2023-08-21T11:28:30;25.80;1.00
20284;DHT22;10301;50.832;4.080;2023-08-21T11:30:56;25.80;99.90
20284;DHT22;10301;50.832;4.080;2023-08-21T11:33:23;25.80;1.00
20284;DHT22;10301;50.832;4.080;2023-08-21T11:35:49;25.80;1.00
20284;DHT22;10301;50.832;4.080;2023-08-21T11:38:17;25.70;99.90
20284;DHT22;10301;50.832;4.080;2023-08-21T11:41:00;25.80;99.90
20284;DHT22;10301;50.832;4.080;2023-08-21T11:43:40;25.90;99.90
20284;DHT22;10301;50.832;4.080;2023-08-21T11:46:06;25.90;99.90
20284;DHT22;10301;50.832;4.080;2023-08-21T11:48:33;26.00;1.00
20284;DHT22;10301;50.832;4.080;2023-08-21T11:51:01;26.10;1.00
20284;DHT22;10301;50.832;4.080;2023-08-21T11:53:47;26.20;1.00
20284;DHT22;10301;50.832;4.080;2023-08-21T11:56:16;26.20;1.00
20284;DHT22;10301;50.832;4.080;2023-08-21T11:58:44;26.20;1.00
20284;DHT22;10301;50.832;4.080;2023-08-21T12:01:21;26.10;1.00
20284;DHT22;10301;50.832;4.080;2023-08-21T12:03:47;26.00;1.00
20284;DHT22;10301;50.832;4.080;2023-08-21T12:06:20;26.00;1.00
20284;DHT22;10301;50.832;4.080;2023-08-21T12:08:46;26.20;1.00
20284;DHT22;10301;50.832;4.080;2023-08-21T12:11:12;26.20;99.90
20284;DHT22;10301;50.832;4.080;2023-08-21T12:13:37;26.10;99.90
20284;DHT22;10301;50.832;4.080;2023-08-21T12:16:04;26.10;99.90
20284;DHT22;10301;50.832;4.080;2023-08-21T12:18:30;26.00;99.90
20284;DHT22;10301;50.832;4.080;2023-08-21T12:20:55;26.10;99.90
20284;DHT22;10301;50.832;4.080;2023-08-21T12:23:21;26.20;99.90
20284;DHT22;10301;50.832;4.080;2023-08-21T12:25:47;26.10;99.90
20284;DHT22;10301;50.832;4.080;2023-08-21T12:28:13;26.20;99.90
20284;DHT22;10301;50.832;4.080;2023-08-21T12:30:38;26.10;99.90
20284;DHT22;10301;50.832;4.080;2023-08-21T12:33:04;26.20;95.40
20284;DHT22;10301;50.832;4.080;2023-08-21T12:35:30;26.40;27.90
20284;DHT22;10301;50.832;4.080;2023-08-21T12:37:57;26.50;1.00
20284;DHT22;10301;50.832;4.080;2023-08-21T12:40:23;26.10;1.00
20284;DHT22;10301;50.832;4.080;2023-08-21T12:42:49;26.20;99.90
20284;DHT22;10301;50.832;4.080;2023-08-21T12:45:16;26.20;99.90
20284;DHT22;10301;50.832;4.080;2023-08-21T12:47:41;26.00;99.90
20284;DHT22;10301;50.832;4.080;2023-08-21T12:50:08;26.20;1.00
20284;DHT22;10301;50.832;4.080;2023-08-21T12:52:33;26.20;99.90
20284;DHT22;10301;50.832;4.080;2023-08-21T12:54:59;25.90;1.00
20284;DHT22;10301;50.832;4.080;2023-08-21T12:57:27;25.90;1.00
20284;DHT22;10301;50.832;4.080;2023-08-21T12:59:52;26.20;1.00
20284;DHT22;10301;50.832;4.080;2023-08-21T13:02:18;26.30;99.90
20284;DHT22;10301;50.832;4.080;2023-08-21T13:04:44;26.30;99.90
20284;DHT22;10301;50.832;4.080;2023-08-21T13:07:10;26.40;99.90
20284;DHT22;10301;50.832;4.080;2023-08-21T13:09:36;26.30;99.90
20284;DHT22;10301;50.832;4.080;2023-08-21T13:12:01;26.30;99.90
20284;DHT22;10301;50.832;4.080;2023-08-21T13:14:27;26.50;96.30
20284;DHT22;10301;50.832;4.080;2023-08-21T13:16:53;26.60;1.00
20284;DHT22;10301;50.832;4.080;2023-08-21T13:19:19;26.70;1.00
20284;DHT22;10301;50.832;4.080;2023-08-21T13:21:44;26.80;99.90
20284;DHT22;10301;50.832;4.080;2023-08-21T13:24:10;26.80;1.00
20284;DHT22;10301;50.832;4.080;2023-08-21T13:26:36;26.80;1.00
20284;DHT22;10301;50.832;4.080;2023-08-21T13:29:02;26.70;1.00
20284;DHT22;10301;50.832;4.080;2023-08-21T13:31:27;26.80;1.00
20284;DHT22;10301;50.832;4.080;2023-08-21T13:33:54;26.90;1.00
20284;DHT22;10301;50.832;4.080;2023-08-21T13:36:20;26.70;1.00
20284;DHT22;10301;50.832;4.080;2023-08-21T13:38:47;26.50;1.00
20284;DHT22;10301;50.832;4.080;2023-08-21T13:41:12;26.40;1.00
20284;DHT22;10301;50.832;4.080;2023-08-21T13:43:38;26.50;1.00
20284;DHT22;10301;50.832;4.080;2023-08-21T13:46:04;26.60;1.00
20284;DHT22;10301;50.832;4.080;2023-08-21T13:48:31;26.70;1.00
20284;DHT22;10301;50.832;4.080;2023-08-21T13:50:56;26.90;1.00
20284;DHT22;10301;50.832;4.080;2023-08-21T13:53:22;27.00;1.00
20284;DHT22;10301;50.832;4.080;2023-08-21T13:55:50;27.00;1.00
20284;DHT22;10301;50.832;4.080;2023-08-21T13:58:15;26.90;1.00
20284;DHT22;10301;50.832;4.080;2023-08-21T14:00:41;26.80;1.00
20284;DHT22;10301;50.832;4.080;2023-08-21T14:03:07;26.90;1.00
20284;DHT22;10301;50.832;4.080;2023-08-21T14:05:32;27.00;1.00
20284;DHT22;10301;50.832;4.080;2023-08-21T14:07:59;27.00;1.00
20284;DHT22;10301;50.832;4.080;2023-08-21T14:10:26;26.80;1.00
20284;DHT22;10301;50.832;4.080;2023-08-21T14:12:52;27.00;1.00
20284;DHT22;10301;50.832;4.080;2023-08-21T14:15:17;27.00;1.00
20284;DHT22;10301;50.832;4.080;2023-08-21T14:17:44;26.80;1.00
20284;DHT22;10301;50.832;4.080;2023-08-21T14:20:10;26.80;1.00
20284;DHT22;10301;50.832;4.080;2023-08-21T14:22:38;26.50;1.00
20284;DHT22;10301;50.832;4.080;2023-08-21T14:25:04;26.80;1.00
20284;DHT22;10301;50.832;4.080;2023-08-21T14:27:33;26.80;1.00
20284;DHT22;10301;50.832;4.080;2023-08-21T14:29:59;26.90;1.00
20284;DHT22;10301;50.832;4.080;2023-08-21T14:32:25;26.50;1.00
20284;DHT22;10301;50.832;4.080;2023-08-21T14:34:52;26.20;1.00
20284;DHT22;10301;50.832;4.080;2023-08-21T14:37:21;26.50;1.00
20284;DHT22;10301;50.832;4.080;2023-08-21T14:39:47;26.70;1.00
20284;DHT22;10301;50.832;4.080;2023-08-21T14:42:13;26.80;1.00
20284;DHT22;10301;50.832;4.080;2023-08-21T14:44:39;27.00;1.00
20284;DHT22;10301;50.832;4.080;2023-08-21T14:47:05;27.20;1.00
20284;DHT22;10301;50.832;4.080;2023-08-21T14:49:31;27.10;1.00
20284;DHT22;10301;50.832;4.080;2023-08-21T14:51:57;27.20;1.00
20284;DHT22;10301;50.832;4.080;2023-08-21T14:54:23;27.30;1.00
20284;DHT22;10301;50.832;4.080;2023-08-21T14:56:50;27.20;1.00
20284;DHT22;10301;50.832;4.080;2023-08-21T14:59:16;27.20;1.00
20284;DHT22;10301;50.832;4.080;2023-08-21T15:01:42;27.10;1.00
20284;DHT22;10301;50.832;4.080;2023-08-21T15:04:08;27.00;1.00
20284;DHT22;10301;50.832;4.080;2023-08-21T15:06:34;26.70;1.00
20284;DHT22;10301;50.832;4.080;2023-08-21T15:09:00;26.80;1.00
20284;DHT22;10301;50.832;4.080;2023-08-21T15:11:26;27.10;1.00
20284;DHT22;10301;50.832;4.080;2023-08-21T15:13:52;27.20;1.00
20284;DHT22;10301;50.832;4.080;2023-08-21T15:16:18;27.00;1.00
20284;DHT22;10301;50.832;4.080;2023-08-21T15:18:43;26.80;1.00
20284;DHT22;10301;50.832;4.080;2023-08-21T15:21:11;26.40;1.00
20284;DHT22;10301;50.832;4.080;2023-08-21T15:23:37;26.70;1.00
20284;DHT22;10301;50.832;4.080;2023-08-21T15:26:02;26.80;1.00
20284;DHT22;10301;50.832;4.080;2023-08-21T15:28:28;26.80;1.00
20284;DHT22;10301;50.832;4.080;2023-08-21T15:30:54;26.50;1.00
20284;DHT22;10301;50.832;4.080;2023-08-21T15:33:19;26.60;1.00
20284;DHT22;10301;50.832;4.080;2023-08-21T15:35:45;26.80;1.00
20284;DHT22;10301;50.832;4.080;2023-08-21T15:38:10;26.80;1.00
20284;DHT22;10301;50.832;4.080;2023-08-21T15:40:36;27.00;1.00
20284;DHT22;10301;50.832;4.080;2023-08-21T15:43:04;26.90;1.00
20284;DHT22;10301;50.832;4.080;2023-08-21T15:45:31;26.80;1.00